sensor_id;sensor_type;location;lat;lon;timestamp;P1;durP1;ratioP1;P2;durP2;ratioP2
12218;SDS011;6172;42.646;23.344;2023-03-21T00:01:00;10.53;;;6.83;;
12218;SDS011;6172;42.646;23.344;2023-03-21T00:03:32;10.67;;;7.50;;
12218;SDS011;6172;42.646;23.344;2023-03-21T00:06:03;11.40;;;7.77;;
12218;SDS011;6172;42.646;23.344;2023-03-21T00:08:31;14.97;;;8.40;;
12218;SDS011;6172;42.646;23.344;2023-03-21T00:11:02;15.93;;;9.10;;
12218;SDS011;6172;42.646;23.344;2023-03-21T00:13:33;16.53;;;9.53;;
12218;SDS011;6172;42.646;23.344;2023-03-21T00:16:03;16.03;;;9.10;;
12218;SDS011;6172;42.646;23.344;2023-03-21T00:18:31;13.13;;;9.37;;
12218;SDS011;6172;42.646;23.344;2023-03-21T00:21:01;15.33;;;9.23;;
12218;SDS011;6172;42.646;23.344;2023-03-21T00:23:30;17.40;;;10.00;;
12218;SDS011;6172;42.646;23.344;2023-03-21T00:25:59;16.83;;;10.30;;
12218;SDS011;6172;42.646;23.344;2023-03-21T00:28:26;15.67;;;9.27;;
12218;SDS011;6172;42.646;23.344;2023-03-21T00:30:56;17.07;;;9.80;;
12218;SDS011;6172;42.646;23.344;2023-03-21T00:33:23;14.67;;;9.60;;
12218;SDS011;6172;42.646;23.344;2023-03-21T00:35:50;16.83;;;10.20;;
12218;SDS011;6172;42.646;23.344;2023-03-21T00:38:18;15.60;;;9.63;;
12218;SDS011;6172;42.646;23.344;2023-03-21T00:40:46;16.80;;;9.77;;
12218;SDS011;6172;42.646;23.344;2023-03-21T00:43:18;15.50;;;9.33;;
12218;SDS011;6172;42.646;23.344;2023-03-21T00:45:47;15.40;;;9.50;;
12218;SDS011;6172;42.646;23.344;2023-03-21T00:48:16;16.40;;;10.13;;
12218;SDS011;6172;42.646;23.344;2023-03-21T00:50:44;15.00;;;9.67;;
12218;SDS011;6172;42.646;23.344;2023-03-21T00:53:13;18.00;;;11.17;;
12218;SDS011;6172;42.646;23.344;2023-03-21T00:55:40;18.10;;;9.97;;
12218;SDS011;6172;42.646;23.344;2023-03-21T00:58:07;17.73;;;9.90;;
12218;SDS011;6172;42.646;23.344;2023-03-21T01:00:36;15.77;;;10.17;;
12218;SDS011;6172;42.646;23.344;2023-03-21T01:03:03;16.67;;;10.40;;
12218;SDS011;6172;42.646;23.344;2023-03-21T01:05:33;15.10;;;11.60;;
12218;SDS011;6172;42.646;23.344;2023-03-21T01:08:20;19.67;;;10.63;;
12218;SDS011;6172;42.646;23.344;2023-03-21T01:10:48;16.70;;;10.03;;
12218;SDS011;6172;42.646;23.344;2023-03-21T01:13:17;21.43;;;10.20;;
12218;SDS011;6172;42.646;23.344;2023-03-21T01:15:48;16.37;;;10.20;;
12218;SDS011;6172;42.646;23.344;2023-03-21T01:18:18;18.53;;;10.60;;
12218;SDS011;6172;42.646;23.344;2023-03-21T01:20:49;19.10;;;10.73;;
12218;SDS011;6172;42.646;23.344;2023-03-21T01:23:26;15.40;;;10.57;;
12218;SDS011;6172;42.646;23.344;2023-03-21T01:25:54;16.97;;;10.70;;
12218;SDS011;6172;42.646;23.344;2023-03-21T01:28:24;18.27;;;10.90;;
12218;SDS011;6172;42.646;23.344;2023-03-21T01:30:55;18.60;;;11.37;;
12218;SDS011;6172;42.646;23.344;2023-03-21T01:33:22;17.70;;;10.57;;
12218;SDS011;6172;42.646;23.344;2023-03-21T01:35:49;17.50;;;11.07;;
12218;SDS011;6172;42.646;23.344;2023-03-21T01:38:16;18.00;;;10.83;;
12218;SDS011;6172;42.646;23.344;2023-03-21T01:40:45;17.27;;;10.67;;
12218;SDS011;6172;42.646;23.344;2023-03-21T01:43:19;17.47;;;10.87;;
12218;SDS011;6172;42.646;23.344;2023-03-21T01:49:02;21.00;;;11.00;;
12218;SDS011;6172;42.646;23.344;2023-03-21T01:51:33;16.30;;;10.27;;
12218;SDS011;6172;42.646;23.344;2023-03-21T01:54:03;15.13;;;10.10;;
12218;SDS011;6172;42.646;23.344;2023-03-21T01:56:34;15.67;;;10.17;;
12218;SDS011;6172;42.646;23.344;2023-03-21T01:59:06;16.03;;;9.93;;
12218;SDS011;6172;42.646;23.344;2023-03-21T02:01:39;14.77;;;9.37;;
12218;SDS011;6172;42.646;23.344;2023-03-21T02:04:09;13.10;;;9.50;;
12218;SDS011;6172;42.646;23.344;2023-03-21T02:06:39;14.37;;;9.10;;
12218;SDS011;6172;42.646;23.344;2023-03-21T02:09:11;12.00;;;9.20;;
12218;SDS011;6172;42.646;23.344;2023-03-21T02:11:43;15.47;;;9.40;;
12218;SDS011;6172;42.646;23.344;2023-03-21T02:14:13;11.97;;;8.53;;
12218;SDS011;6172;42.646;23.344;2023-03-21T02:16:47;13.40;;;9.00;;
12218;SDS011;6172;42.646;23.344;2023-03-21T02:19:32;15.97;;;9.20;;
12218;SDS011;6172;42.646;23.344;2023-03-21T02:25:36;13.77;;;7.90;;
12218;SDS011;6172;42.646;23.344;2023-03-21T02:28:18;13.73;;;8.30;;
12218;SDS011;6172;42.646;23.344;2023-03-21T02:31:13;13.90;;;8.43;;
12218;SDS011;6172;42.646;23.344;2023-03-21T02:36:55;11.33;;;7.63;;
12218;SDS011;6172;42.646;23.344;2023-03-21T02:39:33;12.77;;;7.97;;
12218;SDS011;6172;42.646;23.344;2023-03-21T02:42:12;12.90;;;7.87;;
12218;SDS011;6172;42.646;23.344;2023-03-21T02:44:46;14.20;;;8.00;;
12218;SDS011;6172;42.646;23.344;2023-03-21T02:47:19;10.57;;;8.30;;
12218;SDS011;6172;42.646;23.344;2023-03-21T02:49:51;17.07;;;8.80;;
12218;SDS011;6172;42.646;23.344;2023-03-21T02:52:24;19.20;;;8.33;;
12218;SDS011;6172;42.646;23.344;2023-03-21T02:54:54;15.23;;;7.97;;
12218;SDS011;6172;42.646;23.344;2023-03-21T02:57:23;16.83;;;8.43;;
12218;SDS011;6172;42.646;23.344;2023-03-21T02:59:51;15.57;;;8.70;;
12218;SDS011;6172;42.646;23.344;2023-03-21T03:02:20;11.40;;;8.13;;
12218;SDS011;6172;42.646;23.344;2023-03-21T03:04:50;15.43;;;8.83;;
12218;SDS011;6172;42.646;23.344;2023-03-21T03:07:20;16.13;;;8.93;;
12218;SDS011;6172;42.646;23.344;2023-03-21T03:10:08;16.87;;;9.00;;
12218;SDS011;6172;42.646;23.344;2023-03-21T03:12:48;17.37;;;9.17;;
12218;SDS011;6172;42.646;23.344;2023-03-21T03:15:29;11.23;;;8.43;;
12218;SDS011;6172;42.646;23.344;2023-03-21T03:18:06;12.47;;;8.87;;
12218;SDS011;6172;42.646;23.344;2023-03-21T03:20:43;16.67;;;9.00;;
12218;SDS011;6172;42.646;23.344;2023-03-21T03:23:20;17.30;;;9.50;;
12218;SDS011;6172;42.646;23.344;2023-03-21T03:25:55;13.03;;;8.73;;
12218;SDS011;6172;42.646;23.344;2023-03-21T03:28:29;13.17;;;8.90;;
12218;SDS011;6172;42.646;23.344;2023-03-21T03:31:01;16.63;;;9.90;;
12218;SDS011;6172;42.646;23.344;2023-03-21T03:33:29;18.80;;;9.80;;
12218;SDS011;6172;42.646;23.344;2023-03-21T03:35:59;18.03;;;10.03;;
12218;SDS011;6172;42.646;23.344;2023-03-21T03:38:28;13.87;;;9.03;;
12218;SDS011;6172;42.646;23.344;2023-03-21T03:40:57;14.80;;;9.57;;
12218;SDS011;6172;42.646;23.344;2023-03-21T03:43:29;12.07;;;8.63;;
12218;SDS011;6172;42.646;23.344;2023-03-21T03:46:04;14.13;;;9.47;;
12218;SDS011;6172;42.646;23.344;2023-03-21T03:48:59;13.57;;;8.13;;
12218;SDS011;6172;42.646;23.344;2023-03-21T03:52:02;12.70;;;6.33;;
12218;SDS011;6172;42.646;23.344;2023-03-21T03:54:37;10.20;;;6.70;;
12218;SDS011;6172;42.646;23.344;2023-03-21T03:57:08;10.80;;;6.57;;
12218;SDS011;6172;42.646;23.344;2023-03-21T03:59:38;9.30;;;6.73;;
12218;SDS011;6172;42.646;23.344;2023-03-21T04:02:07;10.13;;;6.50;;
12218;SDS011;6172;42.646;23.344;2023-03-21T04:04:34;9.60;;;6.00;;
12218;SDS011;6172;42.646;23.344;2023-03-21T04:07:03;10.43;;;6.60;;
12218;SDS011;6172;42.646;23.344;2023-03-21T04:09:31;10.33;;;6.77;;
12218;SDS011;6172;42.646;23.344;2023-03-21T04:12:00;13.23;;;7.17;;
12218;SDS011;6172;42.646;23.344;2023-03-21T04:14:27;10.60;;;6.17;;
12218;SDS011;6172;42.646;23.344;2023-03-21T04:16:54;12.23;;;6.30;;
12218;SDS011;6172;42.646;23.344;2023-03-21T04:19:21;16.30;;;7.17;;
12218;SDS011;6172;42.646;23.344;2023-03-21T04:21:48;20.03;;;7.63;;
12218;SDS011;6172;42.646;23.344;2023-03-21T04:24:15;20.87;;;7.80;;
12218;SDS011;6172;42.646;23.344;2023-03-21T04:26:42;28.97;;;7.43;;
12218;SDS011;6172;42.646;23.344;2023-03-21T04:29:11;13.90;;;6.97;;
12218;SDS011;6172;42.646;23.344;2023-03-21T04:31:38;22.07;;;7.97;;
12218;SDS011;6172;42.646;23.344;2023-03-21T04:34:05;14.87;;;8.20;;
12218;SDS011;6172;42.646;23.344;2023-03-21T04:36:36;10.30;;;6.90;;
12218;SDS011;6172;42.646;23.344;2023-03-21T04:39:07;15.73;;;7.97;;
12218;SDS011;6172;42.646;23.344;2023-03-21T04:41:36;17.53;;;8.30;;
12218;SDS011;6172;42.646;23.344;2023-03-21T04:44:04;17.77;;;7.87;;
12218;SDS011;6172;42.646;23.344;2023-03-21T04:46:34;20.60;;;8.40;;
12218;SDS011;6172;42.646;23.344;2023-03-21T04:49:02;19.63;;;8.50;;
12218;SDS011;6172;42.646;23.344;2023-03-21T04:51:31;19.10;;;8.50;;
12218;SDS011;6172;42.646;23.344;2023-03-21T04:53:58;21.50;;;8.13;;
12218;SDS011;6172;42.646;23.344;2023-03-21T04:56:26;17.90;;;8.23;;
12218;SDS011;6172;42.646;23.344;2023-03-21T04:58:56;18.47;;;7.70;;
12218;SDS011;6172;42.646;23.344;2023-03-21T05:01:23;22.83;;;8.07;;
12218;SDS011;6172;42.646;23.344;2023-03-21T05:03:56;21.67;;;9.47;;
12218;SDS011;6172;42.646;23.344;2023-03-21T05:06:23;16.13;;;8.50;;
12218;SDS011;6172;42.646;23.344;2023-03-21T05:08:52;21.77;;;8.70;;
12218;SDS011;6172;42.646;23.344;2023-03-21T05:11:24;17.77;;;8.73;;
12218;SDS011;6172;42.646;23.344;2023-03-21T05:13:52;23.17;;;8.87;;
12218;SDS011;6172;42.646;23.344;2023-03-21T05:16:19;29.20;;;7.90;;
12218;SDS011;6172;42.646;23.344;2023-03-21T05:18:49;28.40;;;8.93;;
12218;SDS011;6172;42.646;23.344;2023-03-21T05:21:19;19.73;;;9.30;;
12218;SDS011;6172;42.646;23.344;2023-03-21T05:23:50;28.90;;;8.70;;
12218;SDS011;6172;42.646;23.344;2023-03-21T05:26:20;21.53;;;8.13;;
12218;SDS011;6172;42.646;23.344;2023-03-21T05:28:47;24.53;;;8.20;;
12218;SDS011;6172;42.646;23.344;2023-03-21T05:31:16;25.20;;;9.00;;
12218;SDS011;6172;42.646;23.344;2023-03-21T05:33:44;19.00;;;9.27;;
12218;SDS011;6172;42.646;23.344;2023-03-21T05:36:12;21.90;;;8.87;;
12218;SDS011;6172;42.646;23.344;2023-03-21T05:38:41;25.00;;;9.40;;
12218;SDS011;6172;42.646;23.344;2023-03-21T05:41:10;25.03;;;9.17;;
12218;SDS011;6172;42.646;23.344;2023-03-21T05:43:37;27.70;;;9.20;;
12218;SDS011;6172;42.646;23.344;2023-03-21T05:46:05;22.23;;;8.90;;
12218;SDS011;6172;42.646;23.344;2023-03-21T05:48:32;25.13;;;9.63;;
12218;SDS011;6172;42.646;23.344;2023-03-21T05:51:00;22.50;;;8.13;;
12218;SDS011;6172;42.646;23.344;2023-03-21T05:53:27;25.43;;;8.70;;
12218;SDS011;6172;42.646;23.344;2023-03-21T05:55:56;23.83;;;9.03;;
12218;SDS011;6172;42.646;23.344;2023-03-21T05:58:23;25.07;;;9.37;;
12218;SDS011;6172;42.646;23.344;2023-03-21T06:00:50;28.73;;;9.03;;
12218;SDS011;6172;42.646;23.344;2023-03-21T06:03:17;29.50;;;8.57;;
12218;SDS011;6172;42.646;23.344;2023-03-21T06:05:45;28.40;;;8.73;;
12218;SDS011;6172;42.646;23.344;2023-03-21T06:08:12;24.00;;;8.07;;
12218;SDS011;6172;42.646;23.344;2023-03-21T06:10:39;28.00;;;8.50;;
12218;SDS011;6172;42.646;23.344;2023-03-21T06:13:07;17.10;;;8.13;;
12218;SDS011;6172;42.646;23.344;2023-03-21T06:15:36;22.90;;;8.47;;
12218;SDS011;6172;42.646;23.344;2023-03-21T06:18:03;27.70;;;9.57;;
12218;SDS011;6172;42.646;23.344;2023-03-21T06:20:30;35.53;;;10.07;;
12218;SDS011;6172;42.646;23.344;2023-03-21T06:22:57;35.20;;;9.20;;
12218;SDS011;6172;42.646;23.344;2023-03-21T06:25:24;29.80;;;9.83;;
12218;SDS011;6172;42.646;23.344;2023-03-21T06:27:52;26.37;;;9.37;;
12218;SDS011;6172;42.646;23.344;2023-03-21T06:30:21;38.40;;;9.80;;
12218;SDS011;6172;42.646;23.344;2023-03-21T06:32:48;46.67;;;13.07;;
12218;SDS011;6172;42.646;23.344;2023-03-21T06:35:16;33.37;;;11.37;;
12218;SDS011;6172;42.646;23.344;2023-03-21T06:37:45;40.33;;;11.30;;
12218;SDS011;6172;42.646;23.344;2023-03-21T06:40:24;35.23;;;12.43;;
12218;SDS011;6172;42.646;23.344;2023-03-21T06:42:51;32.50;;;10.87;;
12218;SDS011;6172;42.646;23.344;2023-03-21T06:45:18;33.13;;;11.33;;
12218;SDS011;6172;42.646;23.344;2023-03-21T06:47:50;26.30;;;11.97;;
12218;SDS011;6172;42.646;23.344;2023-03-21T06:50:17;26.03;;;10.83;;
12218;SDS011;6172;42.646;23.344;2023-03-21T06:52:45;30.67;;;10.70;;
12218;SDS011;6172;42.646;23.344;2023-03-21T06:55:11;28.27;;;10.03;;
12218;SDS011;6172;42.646;23.344;2023-03-21T06:57:39;19.97;;;9.77;;
12218;SDS011;6172;42.646;23.344;2023-03-21T07:00:07;27.90;;;9.63;;
12218;SDS011;6172;42.646;23.344;2023-03-21T07:02:35;23.63;;;8.00;;
12218;SDS011;6172;42.646;23.344;2023-03-21T07:05:04;20.37;;;7.50;;
12218;SDS011;6172;42.646;23.344;2023-03-21T07:07:33;18.03;;;7.17;;
12218;SDS011;6172;42.646;23.344;2023-03-21T07:09:59;12.40;;;6.93;;
12218;SDS011;6172;42.646;23.344;2023-03-21T07:12:26;10.43;;;7.17;;
12218;SDS011;6172;42.646;23.344;2023-03-21T07:18:13;11.70;;;6.70;;
12218;SDS011;6172;42.646;23.344;2023-03-21T07:20:44;10.53;;;6.50;;
12218;SDS011;6172;42.646;23.344;2023-03-21T07:23:15;13.00;;;7.43;;
12218;SDS011;6172;42.646;23.344;2023-03-21T07:25:42;11.63;;;7.67;;
12218;SDS011;6172;42.646;23.344;2023-03-21T07:28:09;14.03;;;7.23;;
12218;SDS011;6172;42.646;23.344;2023-03-21T07:30:35;21.27;;;7.93;;
12218;SDS011;6172;42.646;23.344;2023-03-21T07:33:02;14.47;;;7.90;;
12218;SDS011;6172;42.646;23.344;2023-03-21T07:35:29;12.23;;;7.77;;
12218;SDS011;6172;42.646;23.344;2023-03-21T07:37:58;15.87;;;8.03;;
12218;SDS011;6172;42.646;23.344;2023-03-21T07:40:25;13.63;;;7.67;;
12218;SDS011;6172;42.646;23.344;2023-03-21T07:42:52;14.67;;;7.63;;
12218;SDS011;6172;42.646;23.344;2023-03-21T07:45:19;13.07;;;7.37;;
12218;SDS011;6172;42.646;23.344;2023-03-21T07:47:48;12.60;;;7.73;;
12218;SDS011;6172;42.646;23.344;2023-03-21T07:50:15;13.03;;;7.87;;
12218;SDS011;6172;42.646;23.344;2023-03-21T07:52:42;12.23;;;7.73;;
12218;SDS011;6172;42.646;23.344;2023-03-21T07:55:12;14.03;;;8.57;;
12218;SDS011;6172;42.646;23.344;2023-03-21T07:57:41;12.37;;;8.40;;
12218;SDS011;6172;42.646;23.344;2023-03-21T08:00:08;11.30;;;8.07;;
12218;SDS011;6172;42.646;23.344;2023-03-21T08:02:48;13.90;;;7.93;;
12218;SDS011;6172;42.646;23.344;2023-03-21T08:05:18;14.47;;;7.90;;
12218;SDS011;6172;42.646;23.344;2023-03-21T08:07:46;17.43;;;8.13;;
12218;SDS011;6172;42.646;23.344;2023-03-21T08:10:15;14.73;;;8.70;;
12218;SDS011;6172;42.646;23.344;2023-03-21T08:12:44;12.03;;;7.87;;
12218;SDS011;6172;42.646;23.344;2023-03-21T08:15:13;20.83;;;8.63;;
12218;SDS011;6172;42.646;23.344;2023-03-21T08:17:41;11.77;;;7.87;;
12218;SDS011;6172;42.646;23.344;2023-03-21T08:20:10;18.03;;;8.40;;
12218;SDS011;6172;42.646;23.344;2023-03-21T08:22:40;13.07;;;8.23;;
12218;SDS011;6172;42.646;23.344;2023-03-21T08:25:07;16.57;;;9.03;;
12218;SDS011;6172;42.646;23.344;2023-03-21T08:27:39;13.13;;;8.13;;
12218;SDS011;6172;42.646;23.344;2023-03-21T08:30:07;12.93;;;8.20;;
12218;SDS011;6172;42.646;23.344;2023-03-21T08:32:35;15.70;;;8.83;;
12218;SDS011;6172;42.646;23.344;2023-03-21T08:35:03;15.73;;;8.40;;
12218;SDS011;6172;42.646;23.344;2023-03-21T08:37:34;15.90;;;8.60;;
12218;SDS011;6172;42.646;23.344;2023-03-21T08:40:02;22.23;;;9.17;;
12218;SDS011;6172;42.646;23.344;2023-03-21T08:42:35;13.37;;;8.93;;
12218;SDS011;6172;42.646;23.344;2023-03-21T08:45:04;16.50;;;8.40;;
12218;SDS011;6172;42.646;23.344;2023-03-21T08:47:32;17.27;;;9.50;;
12218;SDS011;6172;42.646;23.344;2023-03-21T08:49:59;15.27;;;9.40;;
12218;SDS011;6172;42.646;23.344;2023-03-21T08:52:27;17.63;;;8.93;;
12218;SDS011;6172;42.646;23.344;2023-03-21T08:54:54;12.83;;;8.73;;
12218;SDS011;6172;42.646;23.344;2023-03-21T08:57:21;17.77;;;8.87;;
12218;SDS011;6172;42.646;23.344;2023-03-21T08:59:48;15.17;;;8.90;;
12218;SDS011;6172;42.646;23.344;2023-03-21T09:02:17;17.73;;;9.17;;
12218;SDS011;6172;42.646;23.344;2023-03-21T09:04:44;13.30;;;8.97;;
12218;SDS011;6172;42.646;23.344;2023-03-21T09:07:11;17.20;;;8.70;;
12218;SDS011;6172;42.646;23.344;2023-03-21T09:09:39;14.47;;;8.03;;
12218;SDS011;6172;42.646;23.344;2023-03-21T09:12:06;16.70;;;9.63;;
12218;SDS011;6172;42.646;23.344;2023-03-21T09:14:33;18.00;;;9.67;;
12218;SDS011;6172;42.646;23.344;2023-03-21T09:17:00;14.73;;;8.70;;
12218;SDS011;6172;42.646;23.344;2023-03-21T09:19:29;13.13;;;8.03;;
12218;SDS011;6172;42.646;23.344;2023-03-21T09:21:56;16.60;;;8.70;;
12218;SDS011;6172;42.646;23.344;2023-03-21T09:24:23;17.10;;;9.13;;
12218;SDS011;6172;42.646;23.344;2023-03-21T09:26:50;16.47;;;8.83;;
12218;SDS011;6172;42.646;23.344;2023-03-21T09:29:17;14.67;;;8.50;;
12218;SDS011;6172;42.646;23.344;2023-03-21T09:31:45;16.23;;;8.60;;
12218;SDS011;6172;42.646;23.344;2023-03-21T09:34:12;17.07;;;8.37;;
12218;SDS011;6172;42.646;23.344;2023-03-21T09:36:41;14.77;;;8.63;;
12218;SDS011;6172;42.646;23.344;2023-03-21T09:39:12;12.87;;;8.73;;
12218;SDS011;6172;42.646;23.344;2023-03-21T09:41:47;14.50;;;8.37;;
12218;SDS011;6172;42.646;23.344;2023-03-21T09:44:35;10.70;;;7.23;;
12218;SDS011;6172;42.646;23.344;2023-03-21T09:47:19;13.87;;;7.87;;
12218;SDS011;6172;42.646;23.344;2023-03-21T09:49:49;13.33;;;7.57;;
12218;SDS011;6172;42.646;23.344;2023-03-21T09:52:23;12.17;;;8.03;;
12218;SDS011;6172;42.646;23.344;2023-03-21T09:54:53;11.90;;;8.07;;
12218;SDS011;6172;42.646;23.344;2023-03-21T09:57:23;16.03;;;8.33;;
12218;SDS011;6172;42.646;23.344;2023-03-21T09:59:57;15.43;;;8.80;;
12218;SDS011;6172;42.646;23.344;2023-03-21T10:02:33;16.47;;;9.50;;
12218;SDS011;6172;42.646;23.344;2023-03-21T10:05:09;23.37;;;9.77;;
12218;SDS011;6172;42.646;23.344;2023-03-21T10:07:41;19.00;;;9.80;;
12218;SDS011;6172;42.646;23.344;2023-03-21T10:10:14;13.97;;;9.50;;
12218;SDS011;6172;42.646;23.344;2023-03-21T10:12:45;16.17;;;8.47;;
12218;SDS011;6172;42.646;23.344;2023-03-21T10:15:18;18.93;;;9.37;;
12218;SDS011;6172;42.646;23.344;2023-03-21T10:17:48;16.93;;;9.17;;
12218;SDS011;6172;42.646;23.344;2023-03-21T10:20:36;17.80;;;9.33;;
12218;SDS011;6172;42.646;23.344;2023-03-21T10:23:05;19.30;;;9.77;;
12218;SDS011;6172;42.646;23.344;2023-03-21T10:25:37;15.45;;;9.13;;
12218;SDS011;6172;42.646;23.344;2023-03-21T10:28:07;17.60;;;10.07;;
12218;SDS011;6172;42.646;23.344;2023-03-21T10:30:40;21.65;;;10.23;;
12218;SDS011;6172;42.646;23.344;2023-03-21T10:33:13;18.15;;;9.10;;
12218;SDS011;6172;42.646;23.344;2023-03-21T10:35:43;12.98;;;7.18;;
12218;SDS011;6172;42.646;23.344;2023-03-21T10:38:17;15.63;;;8.35;;
12218;SDS011;6172;42.646;23.344;2023-03-21T10:40:45;16.80;;;9.23;;
12218;SDS011;6172;42.646;23.344;2023-03-21T10:43:19;15.18;;;8.82;;
12218;SDS011;6172;42.646;23.344;2023-03-21T10:45:58;13.05;;;8.18;;
12218;SDS011;6172;42.646;23.344;2023-03-21T10:48:34;18.45;;;8.88;;
12218;SDS011;6172;42.646;23.344;2023-03-21T10:51:04;15.77;;;9.43;;
12218;SDS011;6172;42.646;23.344;2023-03-21T10:53:37;20.35;;;10.82;;
12218;SDS011;6172;42.646;23.344;2023-03-21T10:56:07;16.67;;;10.32;;
12218;SDS011;6172;42.646;23.344;2023-03-21T10:58:40;16.90;;;9.52;;
12218;SDS011;6172;42.646;23.344;2023-03-21T11:01:12;13.93;;;9.30;;
12218;SDS011;6172;42.646;23.344;2023-03-21T11:03:44;17.77;;;9.73;;
12218;SDS011;6172;42.646;23.344;2023-03-21T11:06:13;17.45;;;10.48;;
12218;SDS011;6172;42.646;23.344;2023-03-21T11:08:46;16.48;;;10.50;;
12218;SDS011;6172;42.646;23.344;2023-03-21T11:11:19;15.55;;;9.65;;
12218;SDS011;6172;42.646;23.344;2023-03-21T11:13:54;14.57;;;9.70;;
12218;SDS011;6172;42.646;23.344;2023-03-21T11:16:24;15.10;;;9.98;;
12218;SDS011;6172;42.646;23.344;2023-03-21T11:18:59;14.43;;;9.90;;
12218;SDS011;6172;42.646;23.344;2023-03-21T11:21:28;16.67;;;9.73;;
12218;SDS011;6172;42.646;23.344;2023-03-21T11:24:03;16.38;;;9.55;;
12218;SDS011;6172;42.646;23.344;2023-03-21T11:26:36;14.80;;;9.30;;
12218;SDS011;6172;42.646;23.344;2023-03-21T11:29:09;16.52;;;8.52;;
12218;SDS011;6172;42.646;23.344;2023-03-21T11:31:48;12.35;;;7.05;;
12218;SDS011;6172;42.646;23.344;2023-03-21T11:34:26;10.40;;;7.47;;
12218;SDS011;6172;42.646;23.344;2023-03-21T11:36:57;9.55;;;6.00;;
12218;SDS011;6172;42.646;23.344;2023-03-21T11:39:30;9.82;;;6.03;;
12218;SDS011;6172;42.646;23.344;2023-03-21T11:41:58;10.50;;;5.55;;
12218;SDS011;6172;42.646;23.344;2023-03-21T11:44:27;8.02;;;5.13;;
12218;SDS011;6172;42.646;23.344;2023-03-21T11:46:56;12.13;;;5.85;;
12218;SDS011;6172;42.646;23.344;2023-03-21T11:49:24;11.30;;;5.55;;
12218;SDS011;6172;42.646;23.344;2023-03-21T11:51:55;11.20;;;5.32;;
12218;SDS011;6172;42.646;23.344;2023-03-21T11:54:35;8.30;;;4.38;;
12218;SDS011;6172;42.646;23.344;2023-03-21T11:57:12;5.43;;;4.47;;
12218;SDS011;6172;42.646;23.344;2023-03-21T11:59:52;8.70;;;4.82;;
12218;SDS011;6172;42.646;23.344;2023-03-21T12:02:28;9.23;;;5.10;;
12218;SDS011;6172;42.646;23.344;2023-03-21T12:05:20;7.85;;;4.93;;
12218;SDS011;6172;42.646;23.344;2023-03-21T12:07:53;7.57;;;5.32;;
12218;SDS011;6172;42.646;23.344;2023-03-21T12:10:31;8.55;;;4.88;;
12218;SDS011;6172;42.646;23.344;2023-03-21T12:13:16;9.27;;;4.75;;
12218;SDS011;6172;42.646;23.344;2023-03-21T12:15:56;6.10;;;4.40;;
12218;SDS011;6172;42.646;23.344;2023-03-21T12:18:38;12.00;;;6.18;;
12218;SDS011;6172;42.646;23.344;2023-03-21T12:21:22;11.82;;;5.45;;
12218;SDS011;6172;42.646;23.344;2023-03-21T12:23:58;7.22;;;4.85;;
12218;SDS011;6172;42.646;23.344;2023-03-21T12:26:34;10.00;;;4.80;;
12218;SDS011;6172;42.646;23.344;2023-03-21T12:29:12;9.00;;;4.65;;
12218;SDS011;6172;42.646;23.344;2023-03-21T12:31:50;11.45;;;4.50;;
12218;SDS011;6172;42.646;23.344;2023-03-21T12:34:41;5.80;;;4.20;;
12218;SDS011;6172;42.646;23.344;2023-03-21T12:37:28;7.85;;;3.83;;
12218;SDS011;6172;42.646;23.344;2023-03-21T12:40:03;7.40;;;4.65;;
12218;SDS011;6172;42.646;23.344;2023-03-21T12:42:54;7.25;;;3.78;;
12218;SDS011;6172;42.646;23.344;2023-03-21T12:45:37;8.82;;;4.38;;
12218;SDS011;6172;42.646;23.344;2023-03-21T12:48:13;5.57;;;4.05;;
12218;SDS011;6172;42.646;23.344;2023-03-21T12:50:45;10.68;;;4.03;;
12218;SDS011;6172;42.646;23.344;2023-03-21T12:56:06;10.40;;;3.83;;
12218;SDS011;6172;42.646;23.344;2023-03-21T12:58:40;9.20;;;4.15;;
12218;SDS011;6172;42.646;23.344;2023-03-21T13:01:14;7.55;;;3.67;;
12218;SDS011;6172;42.646;23.344;2023-03-21T13:03:45;4.75;;;3.13;;
12218;SDS011;6172;42.646;23.344;2023-03-21T13:06:18;7.55;;;3.80;;
12218;SDS011;6172;42.646;23.344;2023-03-21T13:08:53;4.72;;;3.25;;
12218;SDS011;6172;42.646;23.344;2023-03-21T13:11:28;5.50;;;3.65;;
12218;SDS011;6172;42.646;23.344;2023-03-21T13:14:04;8.55;;;3.55;;
12218;SDS011;6172;42.646;23.344;2023-03-21T13:16:34;10.20;;;4.28;;
12218;SDS011;6172;42.646;23.344;2023-03-21T13:19:19;8.52;;;3.67;;
12218;SDS011;6172;42.646;23.344;2023-03-21T13:21:56;6.30;;;3.72;;
12218;SDS011;6172;42.646;23.344;2023-03-21T13:24:33;7.30;;;3.83;;
12218;SDS011;6172;42.646;23.344;2023-03-21T13:27:14;10.23;;;3.97;;
12218;SDS011;6172;42.646;23.344;2023-03-21T13:29:50;6.80;;;3.77;;
12218;SDS011;6172;42.646;23.344;2023-03-21T13:32:25;4.97;;;3.58;;
12218;SDS011;6172;42.646;23.344;2023-03-21T13:34:56;5.70;;;4.28;;
12218;SDS011;6172;42.646;23.344;2023-03-21T13:37:25;8.15;;;3.78;;
12218;SDS011;6172;42.646;23.344;2023-03-21T13:39:58;6.90;;;3.85;;
12218;SDS011;6172;42.646;23.344;2023-03-21T13:42:33;9.43;;;3.85;;
12218;SDS011;6172;42.646;23.344;2023-03-21T13:45:06;5.17;;;3.63;;
12218;SDS011;6172;42.646;23.344;2023-03-21T13:47:39;4.63;;;3.30;;
12218;SDS011;6172;42.646;23.344;2023-03-21T13:50:21;4.70;;;3.43;;
12218;SDS011;6172;42.646;23.344;2023-03-21T13:58:53;8.67;;;4.03;;
12218;SDS011;6172;42.646;23.344;2023-03-21T14:01:37;9.10;;;3.53;;
12218;SDS011;6172;42.646;23.344;2023-03-21T14:04:10;5.63;;;3.17;;
12218;SDS011;6172;42.646;23.344;2023-03-21T14:06:49;7.83;;;3.67;;
12218;SDS011;6172;42.646;23.344;2023-03-21T14:09:23;5.55;;;3.42;;
12218;SDS011;6172;42.646;23.344;2023-03-21T14:11:54;7.70;;;3.20;;
12218;SDS011;6172;42.646;23.344;2023-03-21T14:14:22;5.40;;;3.17;;
12218;SDS011;6172;42.646;23.344;2023-03-21T14:16:54;8.47;;;3.30;;
12218;SDS011;6172;42.646;23.344;2023-03-21T14:19:27;8.60;;;3.67;;
12218;SDS011;6172;42.646;23.344;2023-03-21T14:21:55;4.60;;;3.37;;
12218;SDS011;6172;42.646;23.344;2023-03-21T14:24:22;6.70;;;3.17;;
12218;SDS011;6172;42.646;23.344;2023-03-21T14:26:49;6.17;;;3.60;;
12218;SDS011;6172;42.646;23.344;2023-03-21T14:29:19;7.63;;;4.10;;
12218;SDS011;6172;42.646;23.344;2023-03-21T14:31:50;8.73;;;3.67;;
12218;SDS011;6172;42.646;23.344;2023-03-21T14:34:19;10.47;;;3.77;;
12218;SDS011;6172;42.646;23.344;2023-03-21T14:36:48;9.53;;;3.77;;
12218;SDS011;6172;42.646;23.344;2023-03-21T14:39:16;8.67;;;3.90;;
12218;SDS011;6172;42.646;23.344;2023-03-21T14:41:48;7.43;;;3.47;;
12218;SDS011;6172;42.646;23.344;2023-03-21T14:44:18;5.27;;;3.10;;
12218;SDS011;6172;42.646;23.344;2023-03-21T14:46:50;9.13;;;3.40;;
12218;SDS011;6172;42.646;23.344;2023-03-21T14:49:20;7.50;;;3.87;;
12218;SDS011;6172;42.646;23.344;2023-03-21T14:51:52;7.07;;;4.20;;
12218;SDS011;6172;42.646;23.344;2023-03-21T14:54:21;6.07;;;3.97;;
12218;SDS011;6172;42.646;23.344;2023-03-21T14:56:52;13.20;;;4.87;;
12218;SDS011;6172;42.646;23.344;2023-03-21T14:59:26;13.43;;;5.37;;
12218;SDS011;6172;42.646;23.344;2023-03-21T15:01:58;8.53;;;4.33;;
12218;SDS011;6172;42.646;23.344;2023-03-21T15:04:29;8.87;;;4.00;;
12218;SDS011;6172;42.646;23.344;2023-03-21T15:06:58;8.63;;;4.60;;
12218;SDS011;6172;42.646;23.344;2023-03-21T15:09:30;6.33;;;4.37;;
12218;SDS011;6172;42.646;23.344;2023-03-21T15:11:59;9.03;;;4.30;;
12218;SDS011;6172;42.646;23.344;2023-03-21T15:14:30;9.10;;;4.27;;
12218;SDS011;6172;42.646;23.344;2023-03-21T15:16:59;6.73;;;3.60;;
12218;SDS011;6172;42.646;23.344;2023-03-21T15:19:31;6.83;;;4.00;;
12218;SDS011;6172;42.646;23.344;2023-03-21T15:22:01;6.73;;;4.30;;